sensor_id;sensor_type;location;lat;lon;timestamp;temperature;humidity
17968;DHT22;9109;48.050;11.696;2022-07-29T03:47:06;20.50;96.50
17968;DHT22;9109;48.050;11.696;2022-07-29T03:50:26;20.50;97.30
17968;DHT22;9109;48.050;11.696;2022-07-29T03:53:37;20.70;96.90
17968;DHT22;9109;48.050;11.696;2022-07-29T03:56:42;20.80;96.80
17968;DHT22;9109;48.050;11.696;2022-07-29T03:59:47;20.90;95.90
17968;DHT22;9109;48.050;11.696;2022-07-29T04:02:50;21.10;95.10
17968;DHT22;9109;48.050;11.696;2022-07-29T04:06:02;21.20;94.50
17968;DHT22;9109;48.050;11.696;2022-07-29T04:09:06;21.30;93.90
17968;DHT22;9109;48.050;11.696;2022-07-29T04:12:09;21.40;93.60
17968;DHT22;9109;48.050;11.696;2022-07-29T04:15:11;21.40;93.20
17968;DHT22;9109;48.050;11.696;2022-07-29T04:18:16;21.30;93.20
17968;DHT22;9109;48.050;11.696;2022-07-29T04:21:18;21.30;93.20
17968;DHT22;9109;48.050;11.696;2022-07-29T04:24:20;21.30;93.10
17968;DHT22;9109;48.050;11.696;2022-07-29T04:27:22;21.30;93.10
17968;DHT22;9109;48.050;11.696;2022-07-29T04:30:24;21.20;93.30
17968;DHT22;9109;48.050;11.696;2022-07-29T04:33:27;20.90;94.10
17968;DHT22;9109;48.050;11.696;2022-07-29T04:36:29;20.40;95.10
17968;DHT22;9109;48.050;11.696;2022-07-29T04:39:31;20.30;96.40
17968;DHT22;9109;48.050;11.696;2022-07-29T04:42:33;20.50;96.70
17968;DHT22;9109;48.050;11.696;2022-07-29T04:45:35;20.20;97.60
17968;DHT22;9109;48.050;11.696;2022-07-29T04:48:42;20.10;98.60
17968;DHT22;9109;48.050;11.696;2022-07-29T04:51:48;20.00;99.90
17968;DHT22;9109;48.050;11.696;2022-07-29T04:55:01;19.80;99.90
17968;DHT22;9109;48.050;11.696;2022-07-29T04:58:13;19.80;99.90
17968;DHT22;9109;48.050;11.696;2022-07-29T05:01:26;19.70;99.90
17968;DHT22;9109;48.050;11.696;2022-07-29T05:04:30;19.60;99.90
17968;DHT22;9109;48.050;11.696;2022-07-29T05:07:32;19.60;99.90
17968;DHT22;9109;48.050;11.696;2022-07-29T05:10:36;19.60;99.90
17968;DHT22;9109;48.050;11.696;2022-07-29T05:13:40;19.60;99.90
17968;DHT22;9109;48.050;11.696;2022-07-29T05:16:42;19.70;99.90
17968;DHT22;9109;48.050;11.696;2022-07-29T05:19:45;19.70;99.90
17968;DHT22;9109;48.050;11.696;2022-07-29T05:26:27;20.10;99.90
17968;DHT22;9109;48.050;11.696;2022-07-29T05:29:43;20.20;99.90
17968;DHT22;9109;48.050;11.696;2022-07-29T05:32:52;20.40;99.90
17968;DHT22;9109;48.050;11.696;2022-07-29T05:36:25;20.40;99.90
17968;DHT22;9109;48.050;11.696;2022-07-29T05:39:39;20.20;99.90
17968;DHT22;9109;48.050;11.696;2022-07-29T05:42:48;20.10;99.90
17968;DHT22;9109;48.050;11.696;2022-07-29T05:46:04;20.20;99.90
17968;DHT22;9109;48.050;11.696;2022-07-29T05:49:06;20.50;99.90
17968;DHT22;9109;48.050;11.696;2022-07-29T05:52:09;20.70;99.90
17968;DHT22;9109;48.050;11.696;2022-07-29T05:55:11;20.90;99.90
17968;DHT22;9109;48.050;11.696;2022-07-29T05:58:13;20.80;99.90
17968;DHT22;9109;48.050;11.696;2022-07-29T06:01:15;20.80;99.40
17968;DHT22;9109;48.050;11.696;2022-07-29T06:04:17;20.70;98.60
17968;DHT22;9109;48.050;11.696;2022-07-29T06:07:21;20.80;99.00
17968;DHT22;9109;48.050;11.696;2022-07-29T06:10:25;21.00;99.30
17968;DHT22;9109;48.050;11.696;2022-07-29T06:13:27;21.10;98.30
17968;DHT22;9109;48.050;11.696;2022-07-29T06:16:29;21.20;97.90
17968;DHT22;9109;48.050;11.696;2022-07-29T06:19:33;21.50;97.10
17968;DHT22;9109;48.050;11.696;2022-07-29T06:22:37;21.70;96.00
17968;DHT22;9109;48.050;11.696;2022-07-29T06:25:39;22.00;95.10
17968;DHT22;9109;48.050;11.696;2022-07-29T06:28:41;22.20;94.60
17968;DHT22;9109;48.050;11.696;2022-07-29T06:31:43;22.40;93.40
17968;DHT22;9109;48.050;11.696;2022-07-29T06:34:45;22.50;92.30
17968;DHT22;9109;48.050;11.696;2022-07-29T06:37:48;22.60;92.10
17968;DHT22;9109;48.050;11.696;2022-07-29T06:40:51;22.70;91.10
17968;DHT22;9109;48.050;11.696;2022-07-29T06:44:02;22.70;91.40
17968;DHT22;9109;48.050;11.696;2022-07-29T06:47:05;22.60;91.60
17968;DHT22;9109;48.050;11.696;2022-07-29T06:50:08;22.60;92.30
17968;DHT22;9109;48.050;11.696;2022-07-29T06:53:13;22.70;91.90
17968;DHT22;9109;48.050;11.696;2022-07-29T06:56:15;22.70;91.80
17968;DHT22;9109;48.050;11.696;2022-07-29T06:59:17;22.90;91.80
17968;DHT22;9109;48.050;11.696;2022-07-29T07:02:19;22.90;91.00
17968;DHT22;9109;48.050;11.696;2022-07-29T07:05:21;23.00;91.30
17968;DHT22;9109;48.050;11.696;2022-07-29T07:08:25;23.10;90.90
17968;DHT22;9109;48.050;11.696;2022-07-29T07:11:27;23.20;90.70
17968;DHT22;9109;48.050;11.696;2022-07-29T07:14:29;23.30;90.20
17968;DHT22;9109;48.050;11.696;2022-07-29T07:17:31;23.40;88.90
17968;DHT22;9109;48.050;11.696;2022-07-29T07:20:33;23.40;89.30
17968;DHT22;9109;48.050;11.696;2022-07-29T07:23:36;23.50;89.50
17968;DHT22;9109;48.050;11.696;2022-07-29T07:26:38;23.60;88.10
17968;DHT22;9109;48.050;11.696;2022-07-29T07:29:40;23.60;88.40
17968;DHT22;9109;48.050;11.696;2022-07-29T07:32:42;23.70;85.20
17968;DHT22;9109;48.050;11.696;2022-07-29T07:35:44;23.60;84.20
17968;DHT22;9109;48.050;11.696;2022-07-29T07:38:47;23.60;85.40
17968;DHT22;9109;48.050;11.696;2022-07-29T07:41:49;23.80;85.90
17968;DHT22;9109;48.050;11.696;2022-07-29T07:44:51;23.80;84.00
17968;DHT22;9109;48.050;11.696;2022-07-29T07:47:53;24.00;82.60
17968;DHT22;9109;48.050;11.696;2022-07-29T07:50:55;24.10;83.10
17968;DHT22;9109;48.050;11.696;2022-07-29T07:53:59;24.10;82.40
17968;DHT22;9109;48.050;11.696;2022-07-29T07:57:01;24.10;82.00
17968;DHT22;9109;48.050;11.696;2022-07-29T08:00:04;24.20;79.50
17968;DHT22;9109;48.050;11.696;2022-07-29T08:03:06;24.20;76.80
17968;DHT22;9109;48.050;11.696;2022-07-29T08:06:09;24.20;78.00
17968;DHT22;9109;48.050;11.696;2022-07-29T08:09:12;24.20;75.00
17968;DHT22;9109;48.050;11.696;2022-07-29T08:12:14;24.20;76.70
17968;DHT22;9109;48.050;11.696;2022-07-29T08:15:16;24.30;78.40
17968;DHT22;9109;48.050;11.696;2022-07-29T08:18:17;24.30;79.20
17968;DHT22;9109;48.050;11.696;2022-07-29T08:21:19;24.50;79.20
17968;DHT22;9109;48.050;11.696;2022-07-29T08:24:23;24.50;76.80
17968;DHT22;9109;48.050;11.696;2022-07-29T08:27:42;24.50;78.90
17968;DHT22;9109;48.050;11.696;2022-07-29T08:30:44;24.60;78.60
17968;DHT22;9109;48.050;11.696;2022-07-29T08:33:46;24.60;77.80
17968;DHT22;9109;48.050;11.696;2022-07-29T08:36:48;24.80;77.10
17968;DHT22;9109;48.050;11.696;2022-07-29T08:39:51;24.90;77.80
17968;DHT22;9109;48.050;11.696;2022-07-29T08:42:53;24.90;76.40
17968;DHT22;9109;48.050;11.696;2022-07-29T08:45:55;25.00;74.50
17968;DHT22;9109;48.050;11.696;2022-07-29T08:48:57;25.00;75.50
17968;DHT22;9109;48.050;11.696;2022-07-29T08:52:00;25.10;72.80
17968;DHT22;9109;48.050;11.696;2022-07-29T08:55:04;25.00;73.00
17968;DHT22;9109;48.050;11.696;2022-07-29T08:58:07;25.10;75.80
17968;DHT22;9109;48.050;11.696;2022-07-29T09:01:10;25.20;75.70
17968;DHT22;9109;48.050;11.696;2022-07-29T09:04:13;25.30;77.50
17968;DHT22;9109;48.050;11.696;2022-07-29T09:07:18;25.40;74.90
17968;DHT22;9109;48.050;11.696;2022-07-29T09:10:21;25.60;76.50
17968;DHT22;9109;48.050;11.696;2022-07-29T09:13:24;25.60;76.10
17968;DHT22;9109;48.050;11.696;2022-07-29T09:16:26;25.60;76.70
17968;DHT22;9109;48.050;11.696;2022-07-29T09:19:45;25.60;76.10
17968;DHT22;9109;48.050;11.696;2022-07-29T09:22:47;25.60;76.00
17968;DHT22;9109;48.050;11.696;2022-07-29T09:25:51;25.70;76.30
17968;DHT22;9109;48.050;11.696;2022-07-29T09:28:53;25.80;72.50
17968;DHT22;9109;48.050;11.696;2022-07-29T09:31:55;25.90;75.00
17968;DHT22;9109;48.050;11.696;2022-07-29T09:35:17;26.00;76.90
17968;DHT22;9109;48.050;11.696;2022-07-29T09:38:19;26.10;76.00
17968;DHT22;9109;48.050;11.696;2022-07-29T09:41:22;26.20;76.70
17968;DHT22;9109;48.050;11.696;2022-07-29T09:44:25;26.20;75.90
17968;DHT22;9109;48.050;11.696;2022-07-29T09:47:41;26.30;74.10
17968;DHT22;9109;48.050;11.696;2022-07-29T09:50:46;26.40;72.20
17968;DHT22;9109;48.050;11.696;2022-07-29T09:53:50;26.50;75.10
17968;DHT22;9109;48.050;11.696;2022-07-29T09:56:54;26.30;75.50
17968;DHT22;9109;48.050;11.696;2022-07-29T09:59:57;26.30;76.60
17968;DHT22;9109;48.050;11.696;2022-07-29T10:03:00;26.30;75.20
17968;DHT22;9109;48.050;11.696;2022-07-29T10:06:07;26.30;75.40
17968;DHT22;9109;48.050;11.696;2022-07-29T10:09:10;26.40;75.50
17968;DHT22;9109;48.050;11.696;2022-07-29T10:12:14;26.50;76.10
17968;DHT22;9109;48.050;11.696;2022-07-29T10:15:16;26.40;72.60
17968;DHT22;9109;48.050;11.696;2022-07-29T10:18:19;26.30;75.20
17968;DHT22;9109;48.050;11.696;2022-07-29T10:21:21;26.40;76.80
17968;DHT22;9109;48.050;11.696;2022-07-29T10:24:24;26.40;75.10
17968;DHT22;9109;48.050;11.696;2022-07-29T10:27:28;26.30;75.70
17968;DHT22;9109;48.050;11.696;2022-07-29T10:30:31;26.30;74.70
17968;DHT22;9109;48.050;11.696;2022-07-29T10:33:44;26.20;74.70
17968;DHT22;9109;48.050;11.696;2022-07-29T10:36:54;26.10;73.50
17968;DHT22;9109;48.050;11.696;2022-07-29T10:40:03;26.10;76.00
17968;DHT22;9109;48.050;11.696;2022-07-29T10:43:32;26.10;76.30
17968;DHT22;9109;48.050;11.696;2022-07-29T10:46:39;25.90;75.50
17968;DHT22;9109;48.050;11.696;2022-07-29T10:49:55;25.90;75.70
17968;DHT22;9109;48.050;11.696;2022-07-29T10:53:02;25.80;76.00
17968;DHT22;9109;48.050;11.696;2022-07-29T10:56:04;25.70;76.90
17968;DHT22;9109;48.050;11.696;2022-07-29T10:59:26;25.50;78.60
17968;DHT22;9109;48.050;11.696;2022-07-29T11:02:45;25.50;79.30
17968;DHT22;9109;48.050;11.696;2022-07-29T11:05:54;25.60;79.40
17968;DHT22;9109;48.050;11.696;2022-07-29T11:09:23;25.60;78.80
17968;DHT22;9109;48.050;11.696;2022-07-29T11:12:46;25.90;79.30
17968;DHT22;9109;48.050;11.696;2022-07-29T11:15:54;26.10;77.90
17968;DHT22;9109;48.050;11.696;2022-07-29T11:19:20;26.30;77.70
17968;DHT22;9109;48.050;11.696;2022-07-29T11:22:32;26.30;73.10
17968;DHT22;9109;48.050;11.696;2022-07-29T11:25:34;26.60;76.10
17968;DHT22;9109;48.050;11.696;2022-07-29T11:28:39;26.80;73.50
17968;DHT22;9109;48.050;11.696;2022-07-29T11:31:47;27.00;72.50
17968;DHT22;9109;48.050;11.696;2022-07-29T11:35:16;27.10;71.20
17968;DHT22;9109;48.050;11.696;2022-07-29T11:38:28;27.10;69.30
17968;DHT22;9109;48.050;11.696;2022-07-29T11:41:30;27.30;71.70
17968;DHT22;9109;48.050;11.696;2022-07-29T11:44:54;27.40;70.80
17968;DHT22;9109;48.050;11.696;2022-07-29T11:47:59;27.50;68.10
17968;DHT22;9109;48.050;11.696;2022-07-29T11:51:09;27.50;69.50
17968;DHT22;9109;48.050;11.696;2022-07-29T11:54:13;27.60;69.50
17968;DHT22;9109;48.050;11.696;2022-07-29T11:57:19;27.60;69.70
17968;DHT22;9109;48.050;11.696;2022-07-29T12:00:24;27.50;65.70
17968;DHT22;9109;48.050;11.696;2022-07-29T12:03:28;27.50;67.20
17968;DHT22;9109;48.050;11.696;2022-07-29T12:06:30;27.50;68.60
17968;DHT22;9109;48.050;11.696;2022-07-29T12:09:32;27.50;68.30
17968;DHT22;9109;48.050;11.696;2022-07-29T12:12:35;27.60;68.40
17968;DHT22;9109;48.050;11.696;2022-07-29T12:15:37;27.70;69.20
17968;DHT22;9109;48.050;11.696;2022-07-29T12:18:40;27.70;68.90
17968;DHT22;9109;48.050;11.696;2022-07-29T12:21:46;27.80;68.90
17968;DHT22;9109;48.050;11.696;2022-07-29T12:24:48;27.90;69.90
17968;DHT22;9109;48.050;11.696;2022-07-29T12:28:00;28.00;67.30
17968;DHT22;9109;48.050;11.696;2022-07-29T12:31:03;27.90;66.50
17968;DHT22;9109;48.050;11.696;2022-07-29T12:34:08;27.80;68.80
17968;DHT22;9109;48.050;11.696;2022-07-29T12:37:11;27.60;65.00
17968;DHT22;9109;48.050;11.696;2022-07-29T12:40:15;27.50;65.00
17968;DHT22;9109;48.050;11.696;2022-07-29T12:43:19;27.40;65.50
17968;DHT22;9109;48.050;11.696;2022-07-29T12:46:21;27.30;64.90
17968;DHT22;9109;48.050;11.696;2022-07-29T12:49:24;27.30;64.80
17968;DHT22;9109;48.050;11.696;2022-07-29T12:52:27;27.60;64.70
17968;DHT22;9109;48.050;11.696;2022-07-29T12:55:39;27.80;64.70
17968;DHT22;9109;48.050;11.696;2022-07-29T12:58:42;28.30;64.20
17968;DHT22;9109;48.050;11.696;2022-07-29T13:01:45;28.60;64.80
17968;DHT22;9109;48.050;11.696;2022-07-29T13:04:57;28.90;62.20
17968;DHT22;9109;48.050;11.696;2022-07-29T13:08:10;28.70;61.10
17968;DHT22;9109;48.050;11.696;2022-07-29T13:11:28;28.60;61.20
17968;DHT22;9109;48.050;11.696;2022-07-29T13:14:32;28.40;63.40
17968;DHT22;9109;48.050;11.696;2022-07-29T13:17:40;28.30;63.70
17968;DHT22;9109;48.050;11.696;2022-07-29T13:20:44;28.20;63.80
17968;DHT22;9109;48.050;11.696;2022-07-29T13:23:46;28.10;64.20
17968;DHT22;9109;48.050;11.696;2022-07-29T13:26:48;27.90;64.20
17968;DHT22;9109;48.050;11.696;2022-07-29T13:29:50;27.80;63.90
17968;DHT22;9109;48.050;11.696;2022-07-29T13:32:52;27.70;64.30
17968;DHT22;9109;48.050;11.696;2022-07-29T13:35:57;27.60;64.00
17968;DHT22;9109;48.050;11.696;2022-07-29T13:38:58;27.50;64.20
17968;DHT22;9109;48.050;11.696;2022-07-29T13:42:03;27.40;64.70
17968;DHT22;9109;48.050;11.696;2022-07-29T13:45:06;27.40;63.20
17968;DHT22;9109;48.050;11.696;2022-07-29T13:48:09;27.40;64.90
17968;DHT22;9109;48.050;11.696;2022-07-29T13:51:13;27.40;64.10
17968;DHT22;9109;48.050;11.696;2022-07-29T13:54:15;27.30;64.10
17968;DHT22;9109;48.050;11.696;2022-07-29T13:57:17;27.20;65.70
17968;DHT22;9109;48.050;11.696;2022-07-29T14:00:18;27.20;66.20
17968;DHT22;9109;48.050;11.696;2022-07-29T14:03:21;27.20;66.10
17968;DHT22;9109;48.050;11.696;2022-07-29T14:06:24;27.10;67.00
17968;DHT22;9109;48.050;11.696;2022-07-29T14:09:26;27.10;67.00
17968;DHT22;9109;48.050;11.696;2022-07-29T14:12:28;27.10;67.90
17968;DHT22;9109;48.050;11.696;2022-07-29T14:15:30;27.10;68.20
17968;DHT22;9109;48.050;11.696;2022-07-29T14:18:32;27.20;67.20
17968;DHT22;9109;48.050;11.696;2022-07-29T14:21:36;27.00;64.00
17968;DHT22;9109;48.050;11.696;2022-07-29T14:24:38;27.00;66.00
17968;DHT22;9109;48.050;11.696;2022-07-29T14:27:40;27.10;64.40
17968;DHT22;9109;48.050;11.696;2022-07-29T14:30:42;27.20;66.30
17968;DHT22;9109;48.050;11.696;2022-07-29T14:33:43;27.50;68.10
17968;DHT22;9109;48.050;11.696;2022-07-29T14:36:47;27.70;66.20
17968;DHT22;9109;48.050;11.696;2022-07-29T14:39:49;27.70;66.30
17968;DHT22;9109;48.050;11.696;2022-07-29T14:42:51;27.70;64.90
17968;DHT22;9109;48.050;11.696;2022-07-29T14:45:53;27.70;65.20
17968;DHT22;9109;48.050;11.696;2022-07-29T14:48:55;27.70;67.20
17968;DHT22;9109;48.050;11.696;2022-07-29T14:51:58;27.70;67.40
17968;DHT22;9109;48.050;11.696;2022-07-29T14:55:00;27.70;66.50
17968;DHT22;9109;48.050;11.696;2022-07-29T14:58:02;27.80;66.60
17968;DHT22;9109;48.050;11.696;2022-07-29T15:01:04;27.90;67.40
17968;DHT22;9109;48.050;11.696;2022-07-29T15:04:06;27.90;66.40
17968;DHT22;9109;48.050;11.696;2022-07-29T15:07:09;27.70;66.70
17968;DHT22;9109;48.050;11.696;2022-07-29T15:10:11;27.50;66.60
17968;DHT22;9109;48.050;11.696;2022-07-29T15:13:13;27.30;66.00
17968;DHT22;9109;48.050;11.696;2022-07-29T15:16:15;27.10;66.30
17968;DHT22;9109;48.050;11.696;2022-07-29T15:19:17;27.10;66.70
17968;DHT22;9109;48.050;11.696;2022-07-29T15:22:20;27.00;67.90
17968;DHT22;9109;48.050;11.696;2022-07-29T15:25:22;27.00;69.00
17968;DHT22;9109;48.050;11.696;2022-07-29T15:28:24;27.10;70.20
17968;DHT22;9109;48.050;11.696;2022-07-29T15:31:26;27.10;70.00
17968;DHT22;9109;48.050;11.696;2022-07-29T15:34:28;27.10;69.40
17968;DHT22;9109;48.050;11.696;2022-07-29T15:37:31;27.10;69.00
17968;DHT22;9109;48.050;11.696;2022-07-29T15:40:37;26.80;67.10
17968;DHT22;9109;48.050;11.696;2022-07-29T15:43:43;26.70;68.50
17968;DHT22;9109;48.050;11.696;2022-07-29T15:46:45;26.70;69.60
17968;DHT22;9109;48.050;11.696;2022-07-29T15:50:07;26.60;70.40
17968;DHT22;9109;48.050;11.696;2022-07-29T15:53:16;26.60;69.90
17968;DHT22;9109;48.050;11.696;2022-07-29T15:56:18;26.60;69.60
17968;DHT22;9109;48.050;11.696;2022-07-29T15:59:21;26.40;68.80
17968;DHT22;9109;48.050;11.696;2022-07-29T16:02:23;26.30;69.10
17968;DHT22;9109;48.050;11.696;2022-07-29T16:05:37;26.20;71.80
17968;DHT22;9109;48.050;11.696;2022-07-29T16:08:41;26.20;71.10
17968;DHT22;9109;48.050;11.696;2022-07-29T16:11:43;26.10;71.10
17968;DHT22;9109;48.050;11.696;2022-07-29T16:14:45;26.10;71.70
17968;DHT22;9109;48.050;11.696;2022-07-29T16:17:48;26.00;71.90
17968;DHT22;9109;48.050;11.696;2022-07-29T16:20:50;25.90;72.70
17968;DHT22;9109;48.050;11.696;2022-07-29T16:23:55;25.90;72.90
17968;DHT22;9109;48.050;11.696;2022-07-29T16:26:57;25.80;73.50
17968;DHT22;9109;48.050;11.696;2022-07-29T16:29:59;25.70;74.80
17968;DHT22;9109;48.050;11.696;2022-07-29T16:33:02;25.60;76.40
17968;DHT22;9109;48.050;11.696;2022-07-29T16:36:05;25.50;76.90
17968;DHT22;9109;48.050;11.696;2022-07-29T16:39:08;25.40;77.20
17968;DHT22;9109;48.050;11.696;2022-07-29T16:42:12;25.40;77.50
17968;DHT22;9109;48.050;11.696;2022-07-29T16:45:14;25.40;77.90
17968;DHT22;9109;48.050;11.696;2022-07-29T16:48:16;25.30;78.40
17968;DHT22;9109;48.050;11.696;2022-07-29T16:51:18;25.30;79.00
17968;DHT22;9109;48.050;11.696;2022-07-29T16:54:21;25.30;79.10
17968;DHT22;9109;48.050;11.696;2022-07-29T16:57:23;25.30;79.10
17968;DHT22;9109;48.050;11.696;2022-07-29T17:00:25;25.20;79.20
17968;DHT22;9109;48.050;11.696;2022-07-29T17:03:27;25.10;79.80
17968;DHT22;9109;48.050;11.696;2022-07-29T17:06:29;25.00;80.20
17968;DHT22;9109;48.050;11.696;2022-07-29T17:09:33;25.00;80.80
17968;DHT22;9109;48.050;11.696;2022-07-29T17:12:35;25.00;81.90
17968;DHT22;9109;48.050;11.696;2022-07-29T17:15:37;24.90;84.40
17968;DHT22;9109;48.050;11.696;2022-07-29T17:18:39;24.80;85.60
17968;DHT22;9109;48.050;11.696;2022-07-29T17:21:41;24.70;85.40
17968;DHT22;9109;48.050;11.696;2022-07-29T17:24:45;24.50;86.50
17968;DHT22;9109;48.050;11.696;2022-07-29T17:27:47;24.50;87.10
17968;DHT22;9109;48.050;11.696;2022-07-29T17:30:49;24.40;86.10
17968;DHT22;9109;48.050;11.696;2022-07-29T17:33:51;24.40;87.00
17968;DHT22;9109;48.050;11.696;2022-07-29T17:36:52;24.30;87.40
17968;DHT22;9109;48.050;11.696;2022-07-29T17:39:56;24.30;87.90
17968;DHT22;9109;48.050;11.696;2022-07-29T17:42:58;24.20;87.50
17968;DHT22;9109;48.050;11.696;2022-07-29T17:46:00;24.00;87.00
17968;DHT22;9109;48.050;11.696;2022-07-29T17:49:02;23.80;88.30
17968;DHT22;9109;48.050;11.696;2022-07-29T17:52:05;23.80;88.40
17968;DHT22;9109;48.050;11.696;2022-07-29T17:55:08;23.60;90.00
17968;DHT22;9109;48.050;11.696;2022-07-29T17:58:12;23.50;90.50
17968;DHT22;9109;48.050;11.696;2022-07-29T18:01:15;23.40;90.80
17968;DHT22;9109;48.050;11.696;2022-07-29T18:04:17;23.30;91.30
17968;DHT22;9109;48.050;11.696;2022-07-29T18:07:20;23.10;92.30
17968;DHT22;9109;48.050;11.696;2022-07-29T18:10:24;23.10;92.90
17968;DHT22;9109;48.050;11.696;2022-07-29T18:13:26;23.10;93.30
17968;DHT22;9109;48.050;11.696;2022-07-29T18:16:27;23.00;91.20
17968;DHT22;9109;48.050;11.696;2022-07-29T18:19:29;22.90;90.00
17968;DHT22;9109;48.050;11.696;2022-07-29T18:22:31;22.80;90.00
17968;DHT22;9109;48.050;11.696;2022-07-29T18:25:35;22.80;90.20
17968;DHT22;9109;48.050;11.696;2022-07-29T18:28:37;22.80;90.50
17968;DHT22;9109;48.050;11.696;2022-07-29T18:31:39;22.60;90.60
17968;DHT22;9109;48.050;11.696;2022-07-29T18:34:41;22.60;90.80
17968;DHT22;9109;48.050;11.696;2022-07-29T18:37:43;22.60;91.00
17968;DHT22;9109;48.050;11.696;2022-07-29T18:40:47;22.50;91.30
17968;DHT22;9109;48.050;11.696;2022-07-29T18:43:49;22.40;91.80
17968;DHT22;9109;48.050;11.696;2022-07-29T18:46:51;22.40;91.70
17968;DHT22;9109;48.050;11.696;2022-07-29T18:49:53;22.50;92.00
17968;DHT22;9109;48.050;11.696;2022-07-29T18:52:55;22.40;91.90
17968;DHT22;9109;48.050;11.696;2022-07-29T18:55:59;22.40;92.00
17968;DHT22;9109;48.050;11.696;2022-07-29T18:59:03;22.40;92.40
17968;DHT22;9109;48.050;11.696;2022-07-29T19:02:05;22.30;93.30
17968;DHT22;9109;48.050;11.696;2022-07-29T19:05:08;22.40;93.90
17968;DHT22;9109;48.050;11.696;2022-07-29T19:08:10;22.40;94.30
17968;DHT22;9109;48.050;11.696;2022-07-29T19:11:15;22.40;94.90
17968;DHT22;9109;48.050;11.696;2022-07-29T19:14:17;22.30;95.80
17968;DHT22;9109;48.050;11.696;2022-07-29T19:17:19;22.30;96.10
17968;DHT22;9109;48.050;11.696;2022-07-29T19:20:21;22.20;97.00
17968;DHT22;9109;48.050;11.696;2022-07-29T19:23:23;22.10;98.20
17968;DHT22;9109;48.050;11.696;2022-07-29T19:26:26;22.00;99.20
17968;DHT22;9109;48.050;11.696;2022-07-29T19:29:28;21.80;99.90
17968;DHT22;9109;48.050;11.696;2022-07-29T19:32:31;21.60;99.90
17968;DHT22;9109;48.050;11.696;2022-07-29T19:35:33;21.50;99.90
17968;DHT22;9109;48.050;11.696;2022-07-29T19:38:35;21.40;99.90
17968;DHT22;9109;48.050;11.696;2022-07-29T19:41:40;21.30;99.90
17968;DHT22;9109;48.050;11.696;2022-07-29T19:44:42;21.20;99.90
17968;DHT22;9109;48.050;11.696;2022-07-29T19:47:44;21.20;99.90
17968;DHT22;9109;48.050;11.696;2022-07-29T19:50:46;21.10;99.90
17968;DHT22;9109;48.050;11.696;2022-07-29T19:53:49;21.00;99.90
17968;DHT22;9109;48.050;11.696;2022-07-29T19:56:53;21.00;99.90
17968;DHT22;9109;48.050;11.696;2022-07-29T19:59:55;20.80;99.90
17968;DHT22;9109;48.050;11.696;2022-07-29T20:02:57;20.70;99.90
17968;DHT22;9109;48.050;11.696;2022-07-29T20:05:59;20.70;99.90
17968;DHT22;9109;48.050;11.696;2022-07-29T20:09:00;20.60;99.90
17968;DHT22;9109;48.050;11.696;2022-07-29T20:12:05;20.60;99.90
17968;DHT22;9109;48.050;11.696;2022-07-29T20:15:09;20.70;99.90
17968;DHT22;9109;48.050;11.696;2022-07-29T20:18:12;20.70;99.90
17968;DHT22;9109;48.050;11.696;2022-07-29T20:21:15;20.80;99.90
17968;DHT22;9109;48.050;11.696;2022-07-29T20:24:17;20.60;99.90
17968;DHT22;9109;48.050;11.696;2022-07-29T20:27:21;20.60;99.90
17968;DHT22;9109;48.050;11.696;2022-07-29T20:30:23;20.60;99.90
17968;DHT22;9109;48.050;11.696;2022-07-29T20:33:25;20.60;99.90
17968;DHT22;9109;48.050;11.696;2022-07-29T20:36:27;20.50;99.90
17968;DHT22;9109;48.050;11.696;2022-07-29T20:39:29;20.40;99.90
17968;DHT22;9109;48.050;11.696;2022-07-29T20:42:32;20.30;99.90
17968;DHT22;9109;48.050;11.696;2022-07-29T20:45:35;20.30;99.90
17968;DHT22;9109;48.050;11.696;2022-07-29T20:48:38;20.40;99.90
17968;DHT22;9109;48.050;11.696;2022-07-29T20:51:40;20.30;99.90
17968;DHT22;9109;48.050;11.696;2022-07-29T20:54:42;20.30;99.90
17968;DHT22;9109;48.050;11.696;2022-07-29T20:57:45;20.20;99.90
17968;DHT22;9109;48.050;11.696;2022-07-29T21:00:47;20.10;99.90
17968;DHT22;9109;48.050;11.696;2022-07-29T21:03:49;19.90;99.90
17968;DHT22;9109;48.050;11.696;2022-07-29T21:06:51;19.90;99.90
17968;DHT22;9109;48.050;11.696;2022-07-29T21:09:53;19.90;99.90
17968;DHT22;9109;48.050;11.696;2022-07-29T21:12:56;20.00;99.90
17968;DHT22;9109;48.050;11.696;2022-07-29T21:15:58;20.10;99.90
17968;DHT22;9109;48.050;11.696;2022-07-29T21:19:00;20.10;99.90
17968;DHT22;9109;48.050;11.696;2022-07-29T21:22:03;20.20;99.90
17968;DHT22;9109;48.050;11.696;2022-07-29T21:25:05;20.10;99.90
17968;DHT22;9109;48.050;11.696;2022-07-29T21:28:10;20.00;99.90
17968;DHT22;9109;48.050;11.696;2022-07-29T21:31:28;20.10;99.90
17968;DHT22;9109;48.050;11.696;2022-07-29T21:34:30;20.20;99.90
17968;DHT22;9109;48.050;11.696;2022-07-29T21:37:32;20.20;99.90
17968;DHT22;9109;48.050;11.696;2022-07-29T21:40:34;20.00;99.90
17968;DHT22;9109;48.050;11.696;2022-07-29T21:43:38;20.00;99.90
17968;DHT22;9109;48.050;11.696;2022-07-29T21:46:42;19.80;99.90
17968;DHT22;9109;48.050;11.696;2022-07-29T21:49:44;19.70;99.90
17968;DHT22;9109;48.050;11.696;2022-07-29T21:52:50;19.80;99.90
17968;DHT22;9109;48.050;11.696;2022-07-29T21:55:52;19.70;99.90
17968;DHT22;9109;48.050;11.696;2022-07-29T21:58:55;19.70;99.90
17968;DHT22;9109;48.050;11.696;2022-07-29T22:01:57;19.70;99.90
17968;DHT22;9109;48.050;11.696;2022-07-29T22:05:00;19.60;99.90
17968;DHT22;9109;48.050;11.696;2022-07-29T22:08:02;19.60;99.90
17968;DHT22;9109;48.050;11.696;2022-07-29T22:11:04;19.70;99.90
17968;DHT22;9109;48.050;11.696;2022-07-29T22:14:12;19.70;99.90
17968;DHT22;9109;48.050;11.696;2022-07-29T22:17:15;19.70;99.90
17968;DHT22;9109;48.050;11.696;2022-07-29T22:20:19;19.60;99.90
17968;DHT22;9109;48.050;11.696;2022-07-29T22:23:21;19.60;99.90
17968;DHT22;9109;48.050;11.696;2022-07-29T22:26:23;19.60;99.90
17968;DHT22;9109;48.050;11.696;2022-07-29T22:29:26;19.70;99.90
17968;DHT22;9109;48.050;11.696;2022-07-29T22:32:28;19.70;99.90
17968;DHT22;9109;48.050;11.696;2022-07-29T22:35:30;19.70;99.90
17968;DHT22;9109;48.050;11.696;2022-07-29T22:38:32;19.90;99.90
17968;DHT22;9109;48.050;11.696;2022-07-29T22:41:34;19.80;99.90
17968;DHT22;9109;48.050;11.696;2022-07-29T22:44:37;19.80;99.90
17968;DHT22;9109;48.050;11.696;2022-07-29T22:47:39;19.80;99.90
17968;DHT22;9109;48.050;11.696;2022-07-29T22:50:41;19.70;99.90
17968;DHT22;9109;48.050;11.696;2022-07-29T22:53:43;19.70;99.90
17968;DHT22;9109;48.050;11.696;2022-07-29T22:56:46;19.70;99.90
17968;DHT22;9109;48.050;11.696;2022-07-29T22:59:49;19.70;99.90
